createdAt,value
2023-01-29T00:00:07.986Z,100676.10
2023-01-29T00:00:18.355Z,100676.12
2023-01-29T00:00:27.929Z,100676.77
2023-01-29T00:00:37.927Z,100677.09
2023-01-29T00:00:47.909Z,100675.91
2023-01-29T00:00:58.018Z,100674.94
2023-01-29T00:01:08.042Z,100677.38
2023-01-29T00:01:17.958Z,100675.43
2023-01-29T00:01:27.976Z,100676.62
2023-01-29T00:01:38.022Z,100675.79
2023-01-29T00:01:48.118Z,100674.52
2023-01-29T00:01:58.062Z,100672.90
2023-01-29T00:02:08.033Z,100675.79
2023-01-29T00:02:18.127Z,100672.23
2023-01-29T00:02:27.950Z,100670.64
2023-01-29T00:02:37.902Z,100675.14
2023-01-29T00:02:48.097Z,100675.81
2023-01-29T00:02:58.044Z,100677.11
2023-01-29T00:03:08.015Z,100674.17
2023-01-29T00:03:18.005Z,100674.31
2023-01-29T00:03:27.927Z,100673.98
2023-01-29T00:03:37.980Z,100673.02
2023-01-29T00:03:47.971Z,100672.39
2023-01-29T00:03:57.980Z,100670.63
2023-01-29T00:04:07.900Z,100674.03
2023-01-29T00:04:17.938Z,100676.65
2023-01-29T00:04:27.998Z,100674.22
2023-01-29T00:04:37.899Z,100670.57
2023-01-29T00:04:47.971Z,100669.78
2023-01-29T00:04:59.207Z,100674.34
2023-01-29T00:05:25.968Z,100673.53
2023-01-29T00:05:27.456Z,100672.42
2023-01-29T00:05:28.699Z,100668.86
2023-01-29T00:05:37.961Z,100670.83
2023-01-29T00:05:47.994Z,100668.48
2023-01-29T00:05:57.953Z,100674.12
2023-01-29T00:06:07.972Z,100672.03
2023-01-29T00:06:17.952Z,100674.95
2023-01-29T00:06:27.971Z,100667.31
2023-01-29T00:06:37.930Z,100671.55
2023-01-29T00:06:48.028Z,100668.55
2023-01-29T00:06:57.923Z,100673.86
2023-01-29T00:07:07.983Z,100669.36
2023-01-29T00:07:17.913Z,100666.47
2023-01-29T00:07:28.025Z,100669.36
2023-01-29T00:07:37.965Z,100667.79
2023-01-29T00:07:48.004Z,100666.33
2023-01-29T00:07:57.957Z,100670.19
2023-01-29T00:08:07.925Z,100670.67
2023-01-29T00:08:17.919Z,100669.38
2023-01-29T00:08:28.027Z,100668.27
2023-01-29T00:08:38.022Z,100668.92
2023-01-29T00:08:47.915Z,100670.56
2023-01-29T00:08:57.907Z,100668.59
2023-01-29T00:09:07.964Z,100665.68
2023-01-29T00:09:18.010Z,100668.27
2023-01-29T00:09:28.012Z,100665.57
2023-01-29T00:09:37.993Z,100667.16
2023-01-29T00:09:48.028Z,100669.55
2023-01-29T00:09:57.992Z,100666.01
2023-01-29T00:10:08.017Z,100665.80
2023-01-29T00:10:18.237Z,100666.62
2023-01-29T00:10:28.013Z,100660.94
2023-01-29T00:10:38.017Z,100665.80
2023-01-29T00:10:47.994Z,100661.27
2023-01-29T00:10:58.025Z,100662.89
2023-01-29T00:11:07.982Z,100661.54
2023-01-29T00:11:18.023Z,100661.70
2023-01-29T00:11:27.910Z,100664.45
2023-01-29T00:11:38.025Z,100662.95
2023-01-29T00:11:48.009Z,100665.08
2023-01-29T00:11:57.986Z,100662.95
2023-01-29T00:12:07.977Z,100662.47
2023-01-29T00:12:17.988Z,100664.55
2023-01-29T00:12:28.016Z,100660.85
2023-01-29T00:12:37.968Z,100662.81
2023-01-29T00:12:47.995Z,100659.88
2023-01-29T00:12:58.006Z,100665.05
2023-01-29T00:13:07.932Z,100662.14
2023-01-29T00:13:18.010Z,100664.89
2023-01-29T00:13:28.032Z,100662.14
2023-01-29T00:13:37.989Z,100665.38
2023-01-29T00:13:47.929Z,100664.89
2023-01-29T00:13:58.015Z,100661.98
2023-01-29T00:14:07.941Z,100661.52
2023-01-29T00:14:17.979Z,100666.33
2023-01-29T00:14:28.002Z,100657.77
2023-01-29T00:14:37.999Z,100662.92
2023-01-29T00:14:47.924Z,100667.11
2023-01-29T00:14:57.961Z,100668.10
2023-01-29T00:15:07.908Z,100667.59
2023-01-29T00:15:17.987Z,100667.02
2023-01-29T00:15:27.989Z,100667.16
2023-01-29T00:15:37.916Z,100664.25
2023-01-29T00:15:48.012Z,100665.55
2023-01-29T00:15:58.022Z,100667.43
2023-01-29T00:16:08.011Z,100668.23
2023-01-29T00:16:17.954Z,100669.53
2023-01-29T00:16:27.976Z,100670.66
2023-01-29T00:16:38.007Z,100672.47
2023-01-29T00:16:47.926Z,100672.15
2023-01-29T00:16:57.951Z,100673.25
2023-01-29T00:17:08.058Z,100671.16
2023-01-29T00:17:18.084Z,100675.52
2023-01-29T00:17:27.916Z,100675.66
2023-01-29T00:17:37.919Z,100673.86
2023-01-29T00:17:48.002Z,100673.72
2023-01-29T00:17:57.918Z,100674.05
2023-01-29T00:18:08.014Z,100670.81
2023-01-29T00:18:18.024Z,100675.48
2023-01-29T00:18:27.956Z,100671.27
2023-01-29T00:18:37.968Z,100674.51
2023-01-29T00:18:47.916Z,100673.02
2023-01-29T00:18:58.009Z,100667.87
2023-01-29T00:19:07.966Z,100673.88
2023-01-29T00:19:17.992Z,100668.84
2023-01-29T00:19:27.926Z,100671.12
2023-01-29T00:19:37.982Z,100668.86
2023-01-29T00:19:48.026Z,100665.49
2023-01-29T00:19:58.030Z,100669.97
2023-01-29T00:20:07.924Z,100669.52
2023-01-29T00:20:18.404Z,100668.73
2023-01-29T00:20:27.920Z,100670.50
2023-01-29T00:20:38.019Z,100667.25
2023-01-29T00:20:48.017Z,100669.65
2023-01-29T00:20:58.034Z,100668.20
2023-01-29T00:21:08.020Z,100669.65
2023-01-29T00:21:17.932Z,100667.38
2023-01-29T00:21:27.929Z,100664.77
2023-01-29T00:21:37.923Z,100667.33
2023-01-29T00:21:47.943Z,100668.47
2023-01-29T00:21:57.972Z,100665.73
2023-01-29T00:22:07.980Z,100661.08
2023-01-29T00:22:17.924Z,100667.38
2023-01-29T00:22:27.967Z,100663.18
2023-01-29T00:22:37.991Z,100665.44
2023-01-29T00:22:48.044Z,100660.77
2023-01-29T00:22:57.991Z,100665.11
2023-01-29T00:23:07.922Z,100663.17
2023-01-29T00:23:17.929Z,100663.53
2023-01-29T00:23:28.002Z,100664.64
2023-01-29T00:23:37.969Z,100663.39
2023-01-29T00:23:48.007Z,100664.84
2023-01-29T00:23:58.074Z,100662.44
2023-01-29T00:24:07.984Z,100665.52
2023-01-29T00:24:17.994Z,100664.36
2023-01-29T00:24:28.112Z,100666.00
2023-01-29T00:24:37.900Z,100660.84
2023-01-29T00:24:48.025Z,100664.25
2023-01-29T00:24:57.982Z,100663.59
2023-01-29T00:25:07.914Z,100659.11
2023-01-29T00:25:17.920Z,100660.36
2023-01-29T00:25:27.905Z,100659.25
2023-01-29T00:25:37.992Z,100660.73
2023-01-29T00:25:48.009Z,100660.25
2023-01-29T00:25:57.938Z,100657.98
2023-01-29T00:26:07.928Z,100658.84
2023-01-29T00:26:17.963Z,100662.07
2023-01-29T00:26:27.955Z,100654.66
2023-01-29T00:26:38.036Z,100655.66
2023-01-29T00:26:48.032Z,100654.06
2023-01-29T00:26:57.909Z,100654.73
2023-01-29T00:27:07.976Z,100656.70
2023-01-29T00:27:17.950Z,100654.43
2023-01-29T00:27:27.981Z,100653.64
2023-01-29T00:27:37.967Z,100655.08
2023-01-29T00:27:47.949Z,100654.12
2023-01-29T00:27:57.990Z,100652.65
2023-01-29T00:28:07.899Z,100651.03
2023-01-29T00:28:18.036Z,100650.44
2023-01-29T00:28:27.932Z,100653.97
2023-01-29T00:28:37.904Z,100653.99
2023-01-29T00:28:48.012Z,100650.73
2023-01-29T00:28:57.921Z,100650.75
2023-01-29T00:29:07.992Z,100653.50
2023-01-29T00:29:18.050Z,100653.64
2023-01-29T00:29:27.950Z,100649.11
2023-01-29T00:29:38.009Z,100653.95
2023-01-29T00:29:47.923Z,100650.44
2023-01-29T00:29:57.948Z,100651.70
2023-01-29T00:30:07.990Z,100650.55
2023-01-29T00:30:18.405Z,100654.12
2023-01-29T00:30:27.904Z,100649.60
2023-01-29T00:30:37.990Z,100652.78
2023-01-29T00:30:48.018Z,100649.88
2023-01-29T00:30:58.070Z,100651.81
2023-01-29T00:31:08.135Z,100646.83
2023-01-29T00:31:18.143Z,100650.38
2023-01-29T00:31:28.168Z,100650.25
2023-01-29T00:31:38.100Z,100651.22
2023-01-29T00:31:48.174Z,100651.38
2023-01-29T00:31:58.147Z,100653.78
2023-01-29T00:32:08.084Z,100649.77
2023-01-29T00:32:18.109Z,100646.52
2023-01-29T00:32:27.959Z,100646.84
2023-01-29T00:32:37.937Z,100643.48
2023-01-29T00:32:48.008Z,100646.20
2023-01-29T00:32:58.028Z,100645.23
2023-01-29T00:33:07.982Z,100641.07
2023-01-29T00:33:17.994Z,100643.50
2023-01-29T00:33:27.997Z,100643.31
2023-01-29T00:33:38.017Z,100641.55
2023-01-29T00:33:47.933Z,100644.45
2023-01-29T00:33:57.958Z,100643.50
2023-01-29T00:34:07.951Z,100639.83
2023-01-29T00:34:17.924Z,100639.66
2023-01-29T00:34:27.941Z,100636.75
2023-01-29T00:34:37.977Z,100639.61
2023-01-29T00:34:48.021Z,100635.75
2023-01-29T00:34:57.964Z,100636.27
2023-01-29T00:35:07.984Z,100639.66
2023-01-29T00:35:17.922Z,100639.36
2023-01-29T00:35:27.968Z,100637.23
2023-01-29T00:35:37.956Z,100636.59
2023-01-29T00:35:48.023Z,100636.94
2023-01-29T00:35:57.932Z,100637.94
2023-01-29T00:36:07.939Z,100633.91
2023-01-29T00:36:18.002Z,100635.98
2023-01-29T00:36:28.033Z,100637.94
2023-01-29T00:36:37.943Z,100638.30
2023-01-29T00:36:48.004Z,100635.85
2023-01-29T00:36:57.905Z,100635.34
2023-01-29T00:37:07.950Z,100638.92
2023-01-29T00:37:17.912Z,100635.88
2023-01-29T00:37:27.973Z,100636.98
2023-01-29T00:37:38.002Z,100638.41
2023-01-29T00:37:47.903Z,100633.59
2023-01-29T00:37:57.933Z,100637.14
2023-01-29T00:38:07.938Z,100634.56
2023-01-29T00:38:17.905Z,100634.56
2023-01-29T00:38:27.950Z,100633.75
2023-01-29T00:38:37.911Z,100635.23
2023-01-29T00:38:48.042Z,100635.32
2023-01-29T00:38:57.923Z,100636.16
2023-01-29T00:39:07.995Z,100635.72
2023-01-29T00:39:17.919Z,100634.08
2023-01-29T00:39:42.468Z,100630.00
2023-01-29T00:39:47.564Z,100635.20
2023-01-29T00:39:48.535Z,100633.08
2023-01-29T00:39:57.905Z,100635.83
2023-01-29T00:40:07.912Z,100635.67
2023-01-29T00:40:18.367Z,100632.92
2023-01-29T00:40:27.899Z,100638.05
2023-01-29T00:40:37.918Z,100634.67
2023-01-29T00:40:47.901Z,100636.42
2023-01-29T00:40:58.010Z,100633.00
2023-01-29T00:41:07.954Z,100635.44
2023-01-29T00:41:18.005Z,100637.05
2023-01-29T00:41:27.964Z,100636.89
2023-01-29T00:41:37.926Z,100636.41
2023-01-29T00:41:47.961Z,100634.30
2023-01-29T00:41:57.965Z,100630.23
2023-01-29T00:42:07.902Z,100636.86
2023-01-29T00:42:17.981Z,100635.89
2023-01-29T00:42:28.000Z,100634.16
2023-01-29T00:42:37.962Z,100636.05
2023-01-29T00:42:48.029Z,100635.27
2023-01-29T00:42:57.942Z,100630.93
2023-01-29T00:43:07.978Z,100634.77
2023-01-29T00:43:17.900Z,100635.08
2023-01-29T00:43:27.991Z,100639.30
2023-01-29T00:43:37.957Z,100631.84
2023-01-29T00:43:48.024Z,100632.28
2023-01-29T00:43:57.975Z,100632.94
2023-01-29T00:44:07.976Z,100631.06
2023-01-29T00:44:17.981Z,100631.52
2023-01-29T00:44:27.951Z,100632.12
2023-01-29T00:44:37.919Z,100632.28
2023-01-29T00:44:47.936Z,100636.14
2023-01-29T00:44:58.044Z,100635.50
2023-01-29T00:45:08.023Z,100639.34
2023-01-29T00:45:17.950Z,100633.74
2023-01-29T00:45:28.013Z,100632.91
2023-01-29T00:45:38.029Z,100632.77
2023-01-29T00:45:47.971Z,100631.31
2023-01-29T00:45:58.006Z,100631.69
2023-01-29T00:46:07.920Z,100627.11
2023-01-29T00:46:17.966Z,100631.66
2023-01-29T00:46:28.031Z,100632.45
2023-01-29T00:46:38.024Z,100626.35
2023-01-29T00:46:47.961Z,100629.86
2023-01-29T00:46:57.997Z,100631.97
2023-01-29T00:47:08.013Z,100625.98
2023-01-29T00:47:17.994Z,100628.08
2023-01-29T00:47:28.003Z,100635.17
2023-01-29T00:47:38.006Z,100628.89
2023-01-29T00:47:48.012Z,100628.84
2023-01-29T00:47:57.937Z,100629.32
2023-01-29T00:48:08.024Z,100633.80
2023-01-29T00:48:18.027Z,100626.25
2023-01-29T00:48:27.921Z,100628.03
2023-01-29T00:48:38.025Z,100632.38
2023-01-29T00:48:47.940Z,100630.08
2023-01-29T00:49:00.111Z,100631.03
2023-01-29T00:49:08.034Z,100629.92
2023-01-29T00:49:17.994Z,100630.87
2023-01-29T00:49:27.943Z,100633.44
2023-01-29T00:49:37.999Z,100628.20
2023-01-29T00:49:47.909Z,100628.19
2023-01-29T00:49:58.048Z,100633.50
2023-01-29T00:50:07.914Z,100633.18
2023-01-29T00:50:18.512Z,100631.83
2023-01-29T00:50:27.971Z,100633.77
2023-01-29T00:50:37.911Z,100632.16
2023-01-29T00:50:47.969Z,100631.34
2023-01-29T00:50:58.008Z,100634.42
2023-01-29T00:51:07.908Z,100633.23
2023-01-29T00:51:17.960Z,100633.22
2023-01-29T00:51:27.918Z,100634.16
2023-01-29T00:51:38.022Z,100635.83
2023-01-29T00:51:47.991Z,100633.84
2023-01-29T00:51:58.028Z,100635.61
2023-01-29T00:52:07.939Z,100633.84
2023-01-29T00:52:17.987Z,100633.51
2023-01-29T00:52:27.926Z,100637.08
2023-01-29T00:52:37.937Z,100636.33
2023-01-29T00:52:48.007Z,100635.36
2023-01-29T00:52:58.032Z,100636.03
2023-01-29T00:53:08.005Z,100636.33
2023-01-29T00:53:17.912Z,100642.64
2023-01-29T00:53:28.033Z,100638.92
2023-01-29T00:53:38.013Z,100636.49
2023-01-29T00:53:47.993Z,100643.58
2023-01-29T00:53:57.951Z,100639.84
2023-01-29T00:54:08.023Z,100639.35
2023-01-29T00:54:18.013Z,100639.35
2023-01-29T00:54:27.959Z,100638.55
2023-01-29T00:54:37.949Z,100640.44
2023-01-29T00:54:47.928Z,100640.59
2023-01-29T00:54:58.036Z,100644.31
2023-01-29T00:55:07.899Z,100638.49
2023-01-29T00:55:17.914Z,100638.98
2023-01-29T00:55:28.039Z,100642.66
2023-01-29T00:55:37.992Z,100643.81
2023-01-29T00:55:48.017Z,100639.95
2023-01-29T00:55:57.951Z,100640.44
2023-01-29T00:56:07.942Z,100641.25
2023-01-29T00:56:17.941Z,100636.53
2023-01-29T00:56:28.481Z,100639.90
2023-01-29T00:56:38.000Z,100636.20
2023-01-29T00:56:47.908Z,100632.32
2023-01-29T00:56:57.988Z,100634.61
2023-01-29T00:57:07.993Z,100637.66
2023-01-29T00:57:18.024Z,100634.61
2023-01-29T00:57:27.911Z,100638.28
2023-01-29T00:57:37.979Z,100635.05
2023-01-29T00:57:48.003Z,100634.42
2023-01-29T00:57:57.962Z,100633.16
2023-01-29T00:58:08.028Z,100637.04
2023-01-29T00:58:17.914Z,100635.25
2023-01-29T00:58:27.896Z,100635.61
2023-01-29T00:58:37.969Z,100635.14
2023-01-29T00:58:47.938Z,100632.55
2023-01-29T00:58:58.006Z,100630.30
2023-01-29T00:59:08.010Z,100635.25
2023-01-29T00:59:17.961Z,100632.23
2023-01-29T00:59:28.005Z,100633.05
2023-01-29T00:59:37.988Z,100633.18
2023-01-29T00:59:47.922Z,100635.28
2023-01-29T00:59:57.999Z,100630.89
2023-01-29T01:00:07.953Z,100633.85
2023-01-29T01:00:18.457Z,100636.44
2023-01-29T01:00:27.916Z,100631.58
2023-01-29T01:00:38.139Z,100632.74
2023-01-29T01:00:47.990Z,100632.91
2023-01-29T01:00:57.999Z,100632.06
2023-01-29T01:01:07.994Z,100626.45
2023-01-29T01:01:17.965Z,100630.34
2023-01-29T01:01:27.905Z,100633.25
2023-01-29T01:01:38.007Z,100632.03
2023-01-29T01:01:48.088Z,100636.03
2023-01-29T01:01:58.113Z,100634.89
2023-01-29T01:02:08.046Z,100629.44
2023-01-29T01:02:18.035Z,100624.10
2023-01-29T01:02:27.951Z,100625.58
2023-01-29T01:02:37.958Z,100627.88
2023-01-29T01:02:48.023Z,100625.58
2023-01-29T01:02:57.923Z,100625.26
2023-01-29T01:03:08.099Z,100626.77
2023-01-29T01:03:17.942Z,100630.90
2023-01-29T01:03:27.937Z,100627.25
2023-01-29T01:03:37.991Z,100624.83
2023-01-29T01:03:47.953Z,100625.45
2023-01-29T01:03:57.974Z,100621.73
2023-01-29T01:04:08.033Z,100626.61
2023-01-29T01:04:18.034Z,100626.77
2023-01-29T01:04:27.923Z,100625.75
2023-01-29T01:04:37.934Z,100625.91
2023-01-29T01:04:47.980Z,100624.61
2023-01-29T01:04:58.019Z,100623.48
2023-01-29T01:05:07.981Z,100627.04
2023-01-29T01:05:18.324Z,100631.06
2023-01-29T01:05:27.957Z,100626.39
2023-01-29T01:05:37.999Z,100623.80
2023-01-29T01:05:47.919Z,100625.42
2023-01-29T01:05:57.897Z,100626.69
2023-01-29T01:06:07.983Z,100625.88
2023-01-29T01:06:17.990Z,100623.16
2023-01-29T01:06:27.939Z,100623.38
2023-01-29T01:06:37.970Z,100627.58
2023-01-29T01:06:47.998Z,100624.17
2023-01-29T01:06:57.919Z,100622.42
2023-01-29T01:07:07.955Z,100620.61
2023-01-29T01:07:15.020Z,100624.34
2023-01-29T01:07:15.221Z,100621.16
2023-01-29T01:07:15.433Z,100623.55
2023-01-29T01:07:15.636Z,100623.55
2023-01-29T01:07:15.858Z,100620.64
2023-01-29T01:07:16.051Z,100620.02
2023-01-29T01:07:25.072Z,100619.64
2023-01-29T01:07:35.105Z,100626.44
2023-01-29T01:07:45.067Z,100619.05
2023-01-29T01:07:55.103Z,100621.83
2023-01-29T01:08:05.014Z,100626.14
2023-01-29T01:08:15.089Z,100623.58
2023-01-29T01:08:25.016Z,100622.61
2023-01-29T01:08:35.114Z,100625.68
2023-01-29T01:08:45.065Z,100621.66
2023-01-29T01:08:55.054Z,100621.20
2023-01-29T01:09:05.080Z,100621.69
2023-01-29T01:09:15.073Z,100621.31
2023-01-29T01:09:25.014Z,100624.76
2023-01-29T01:09:35.065Z,100622.20
2023-01-29T01:09:45.071Z,100619.63
2023-01-29T01:09:55.134Z,100620.09
2023-01-29T01:10:05.131Z,100622.22
2023-01-29T01:10:15.284Z,100626.89
2023-01-29T01:10:25.036Z,100617.84
2023-01-29T01:10:35.078Z,100616.72
2023-01-29T01:10:45.047Z,100618.17
2023-01-29T01:10:55.016Z,100621.11
2023-01-29T01:11:05.083Z,100616.61
2023-01-29T01:11:15.104Z,100619.84
2023-01-29T01:11:25.032Z,100620.81
2023-01-29T01:11:35.075Z,100623.24
2023-01-29T01:11:45.041Z,100614.17
2023-01-29T01:11:55.030Z,100622.30
2023-01-29T01:12:05.036Z,100616.82
2023-01-29T01:12:15.106Z,100621.48
2023-01-29T01:12:25.044Z,100619.41
2023-01-29T01:12:35.072Z,100617.97
2023-01-29T01:12:45.156Z,100619.13
2023-01-29T01:12:55.073Z,100622.21
2023-01-29T01:13:05.031Z,100623.31
2023-01-29T01:13:15.020Z,100622.09
2023-01-29T01:13:25.051Z,100623.36
2023-01-29T01:13:35.096Z,100621.26
2023-01-29T01:13:45.053Z,100623.50
2023-01-29T01:13:55.074Z,100621.75
2023-01-29T01:14:05.106Z,100622.42
2023-01-29T01:14:15.005Z,100621.17
2023-01-29T01:14:25.036Z,100623.06
2023-01-29T01:14:35.135Z,100622.30
2023-01-29T01:14:45.059Z,100622.33
2023-01-29T01:14:55.064Z,100622.47
2023-01-29T01:15:05.100Z,100620.25
2023-01-29T01:15:15.071Z,100620.41
2023-01-29T01:15:25.081Z,100621.17
2023-01-29T01:15:35.094Z,100621.66
2023-01-29T01:15:45.027Z,100620.39
2023-01-29T01:15:55.155Z,100619.41
2023-01-29T01:16:05.065Z,100621.45
2023-01-29T01:16:15.078Z,100619.69
2023-01-29T01:16:25.119Z,100618.09
2023-01-29T01:16:35.177Z,100617.77
2023-01-29T01:16:45.088Z,100618.94
2023-01-29T01:16:55.075Z,100618.95
2023-01-29T01:17:05.009Z,100619.58
2023-01-29T01:17:15.068Z,100622.12
2023-01-29T01:17:25.043Z,100617.47
2023-01-29T01:17:35.011Z,100621.77
2023-01-29T01:17:45.129Z,100623.28
2023-01-29T01:17:55.060Z,100620.66
2023-01-29T01:18:05.068Z,100623.41
2023-01-29T01:18:15.135Z,100623.25
2023-01-29T01:18:25.074Z,100621.02
2023-01-29T01:18:35.082Z,100620.50
2023-01-29T01:18:45.082Z,100619.66
2023-01-29T01:18:55.068Z,100616.75
2023-01-29T01:19:05.118Z,100616.31
2023-01-29T01:19:15.072Z,100619.34
2023-01-29T01:19:25.057Z,100621.12
2023-01-29T01:19:35.134Z,100619.02
2023-01-29T01:19:45.021Z,100617.88
2023-01-29T01:19:55.127Z,100620.45
2023-01-29T01:20:05.010Z,100613.84
2023-01-29T01:20:15.426Z,100619.97
2023-01-29T01:20:25.120Z,100623.34
2023-01-29T01:20:35.145Z,100622.39
2023-01-29T01:20:45.048Z,100620.59
2023-01-29T01:20:55.132Z,100621.08
2023-01-29T01:21:05.062Z,100618.62
2023-01-29T01:21:15.080Z,100617.51
2023-01-29T01:21:25.117Z,100620.11
2023-01-29T01:21:35.022Z,100617.79
2023-01-29T01:21:45.142Z,100620.06
2023-01-29T01:21:55.090Z,100619.41
2023-01-29T01:22:05.053Z,100621.35
2023-01-29T01:22:15.037Z,100619.87
2023-01-29T01:22:25.070Z,100614.39
2023-01-29T01:22:35.021Z,100617.11
2023-01-29T01:22:45.082Z,100623.89
2023-01-29T01:22:55.125Z,100618.22
2023-01-29T01:23:05.014Z,100620.30
2023-01-29T01:23:15.139Z,100619.98
2023-01-29T01:23:25.020Z,100623.41
2023-01-29T01:23:35.113Z,100625.34
2023-01-29T01:23:45.087Z,100622.05
2023-01-29T01:23:55.196Z,100622.55
2023-01-29T01:24:05.126Z,100622.88
2023-01-29T01:24:15.120Z,100619.45
2023-01-29T01:24:25.087Z,100621.25
2023-01-29T01:24:35.040Z,100622.03
2023-01-29T01:24:45.019Z,100619.31
2023-01-29T01:24:55.030Z,100621.39
2023-01-29T01:25:05.049Z,100620.12
2023-01-29T01:25:15.089Z,100619.77
2023-01-29T01:25:25.022Z,100618.30
2023-01-29T01:25:35.091Z,100617.27
2023-01-29T01:25:45.109Z,100619.37
2023-01-29T01:25:55.075Z,100617.10
2023-01-29T01:26:05.114Z,100618.51
2023-01-29T01:26:15.120Z,100617.08
2023-01-29T01:26:25.144Z,100615.95
2023-01-29T01:26:35.045Z,100616.27
2023-01-29T01:26:45.043Z,100618.84
2023-01-29T01:26:55.058Z,100615.11
2023-01-29T01:27:05.141Z,100619.46
2023-01-29T01:27:15.096Z,100614.47
2023-01-29T01:27:25.004Z,100618.48
2023-01-29T01:27:35.059Z,100615.73
2023-01-29T01:27:45.044Z,100616.84
2023-01-29T01:27:55.074Z,100615.88
2023-01-29T01:28:03.332Z,100621.52
2023-01-29T01:28:03.570Z,100617.49
2023-01-29T01:28:03.813Z,100617.48
2023-01-29T01:28:04.033Z,100617.62
2023-01-29T01:28:04.226Z,100620.35
2023-01-29T01:28:04.430Z,100616.17
2023-01-29T01:28:13.285Z,100615.98
2023-01-29T01:28:23.321Z,100617.62
2023-01-29T01:28:33.271Z,100619.49
2023-01-29T01:28:43.333Z,100622.11
2023-01-29T01:28:53.255Z,100623.19
2023-01-29T01:29:03.369Z,100619.98
2023-01-29T01:29:13.315Z,100617.72
2023-01-29T01:29:23.405Z,100621.48
2023-01-29T01:29:33.348Z,100619.33
2023-01-29T01:29:43.265Z,100620.62
2023-01-29T01:29:53.283Z,100622.25
2023-01-29T01:30:03.299Z,100617.69
2023-01-29T01:30:13.440Z,100618.80
2023-01-29T01:30:23.285Z,100621.23
2023-01-29T01:30:33.387Z,100625.27
2023-01-29T01:30:43.421Z,100620.04
2023-01-29T01:30:53.371Z,100618.16
2023-01-29T01:31:03.367Z,100614.92
2023-01-29T01:31:13.465Z,100613.89
2023-01-29T01:31:23.449Z,100621.34
2023-01-29T01:31:33.435Z,100619.86
2023-01-29T01:31:43.481Z,100618.75
2023-01-29T01:31:53.336Z,100622.61
2023-01-29T01:32:03.445Z,100621.31
2023-01-29T01:32:13.370Z,100619.70
2023-01-29T01:32:23.380Z,100616.81
2023-01-29T01:32:33.380Z,100615.48
2023-01-29T01:32:43.379Z,100618.23
2023-01-29T01:32:53.421Z,100619.19
2023-01-29T01:33:03.382Z,100621.28
2023-01-29T01:33:13.368Z,100615.95
2023-01-29T01:33:23.312Z,100623.72
2023-01-29T01:33:33.316Z,100621.42
2023-01-29T01:33:43.298Z,100622.12
2023-01-29T01:33:53.343Z,100617.84
2023-01-29T01:34:03.379Z,100616.70
2023-01-29T01:34:13.294Z,100614.84
2023-01-29T01:34:23.259Z,100609.80
2023-01-29T01:34:33.346Z,100609.80
2023-01-29T01:34:43.382Z,100613.06
2023-01-29T01:34:53.279Z,100604.64
2023-01-29T01:35:03.373Z,100610.15
2023-01-29T01:35:13.275Z,100610.15
2023-01-29T01:35:23.307Z,100611.58
2023-01-29T01:35:33.344Z,100613.52
2023-01-29T01:35:43.344Z,100605.61
2023-01-29T01:35:53.287Z,100607.88
2023-01-29T01:36:03.333Z,100606.56
2023-01-29T01:36:13.343Z,100605.91
2023-01-29T01:36:23.274Z,100607.86
2023-01-29T01:36:33.399Z,100604.29
2023-01-29T01:36:43.280Z,100606.08
2023-01-29T01:36:53.314Z,100605.38
2023-01-29T01:37:03.323Z,100606.73
2023-01-29T01:37:13.331Z,100609.28
2023-01-29T01:37:23.329Z,100608.61
2023-01-29T01:37:33.364Z,100605.75
2023-01-29T01:37:43.275Z,100608.50
2023-01-29T01:37:53.367Z,100601.06
2023-01-29T01:38:03.315Z,100603.62
2023-01-29T01:38:13.372Z,100602.78
2023-01-29T01:38:23.324Z,100609.31
2023-01-29T01:38:33.288Z,100605.94
2023-01-29T01:38:43.351Z,100603.81
2023-01-29T01:38:53.296Z,100604.97
2023-01-29T01:39:03.316Z,100605.42
2023-01-29T01:39:13.356Z,100604.02
2023-01-29T01:39:23.377Z,100609.20
2023-01-29T01:39:33.363Z,100604.83
2023-01-29T01:39:43.371Z,100607.72
2023-01-29T01:39:53.370Z,100603.53
2023-01-29T01:40:03.330Z,100605.64
2023-01-29T01:40:13.489Z,100606.61
2023-01-29T01:40:23.310Z,100604.50
2023-01-29T01:40:33.341Z,100603.05
2023-01-29T01:40:43.312Z,100606.45
2023-01-29T01:40:53.264Z,100599.55
2023-01-29T01:41:03.293Z,100601.62
2023-01-29T01:41:13.373Z,100601.34
2023-01-29T01:41:23.408Z,100601.33
2023-01-29T01:41:33.355Z,100600.84
2023-01-29T01:41:43.343Z,100599.86
2023-01-29T01:41:53.348Z,100602.12
2023-01-29T01:42:03.419Z,100599.86
2023-01-29T01:42:13.400Z,100601.34
2023-01-29T01:42:23.329Z,100594.06
2023-01-29T01:42:33.261Z,100593.77
2023-01-29T01:42:43.285Z,100602.29
2023-01-29T01:42:53.278Z,100598.08
2023-01-29T01:43:03.327Z,100593.91
2023-01-29T01:43:13.291Z,100598.56
2023-01-29T01:43:23.357Z,100597.75
2023-01-29T01:43:33.270Z,100593.55
2023-01-29T01:43:43.343Z,100590.95
2023-01-29T01:43:53.357Z,100593.72
2023-01-29T01:44:03.331Z,100594.34
2023-01-29T01:44:13.293Z,100594.20
2023-01-29T01:44:23.285Z,100594.53
2023-01-29T01:44:33.310Z,100592.58
2023-01-29T01:44:43.331Z,100589.88
2023-01-29T01:44:53.283Z,100590.36
2023-01-29T01:45:03.389Z,100588.77
2023-01-29T01:45:13.261Z,100588.77
2023-01-29T01:45:23.345Z,100586.55
2023-01-29T01:45:33.356Z,100596.97
2023-01-29T01:45:43.274Z,100596.52
2023-01-29T01:45:53.570Z,100590.44
2023-01-29T01:46:03.348Z,100594.16
2023-01-29T01:46:13.448Z,100590.14
2023-01-29T01:46:23.326Z,100585.94
2023-01-29T01:46:33.301Z,100589.39
2023-01-29T01:46:43.274Z,100589.34
2023-01-29T01:46:53.362Z,100587.28
2023-01-29T01:47:03.325Z,100592.30
2023-01-29T01:47:13.317Z,100588.09
2023-01-29T01:47:23.311Z,100589.39
2023-01-29T01:47:33.305Z,100591.67
2023-01-29T01:47:43.290Z,100590.05
2023-01-29T01:47:53.281Z,100596.29
2023-01-29T01:48:03.353Z,100594.21
2023-01-29T01:48:13.305Z,100597.29
2023-01-29T01:48:23.343Z,100595.00
2023-01-29T01:48:33.372Z,100594.08
2023-01-29T01:48:43.360Z,100592.76
2023-01-29T01:48:53.391Z,100593.27
2023-01-29T01:49:03.396Z,100590.47
2023-01-29T01:49:13.380Z,100596.12
2023-01-29T01:49:23.328Z,100597.59
2023-01-29T01:49:33.343Z,100599.02
2023-01-29T01:49:43.298Z,100598.07
2023-01-29T01:49:53.293Z,100595.16
2023-01-29T01:50:03.394Z,100594.56
2023-01-29T01:50:13.477Z,100598.91
2023-01-29T01:50:23.282Z,100594.72
2023-01-29T01:50:33.264Z,100597.94
2023-01-29T01:50:43.309Z,100599.36
2023-01-29T01:50:53.358Z,100600.22
2023-01-29T01:51:03.312Z,100591.65
2023-01-29T01:51:13.339Z,100599.39
2023-01-29T01:51:23.282Z,100599.50
2023-01-29T01:51:33.315Z,100594.35
2023-01-29T01:51:43.286Z,100602.23
2023-01-29T01:51:53.305Z,100597.38
2023-01-29T01:52:03.309Z,100598.12
2023-01-29T01:52:13.374Z,100602.85
2023-01-29T01:52:23.286Z,100598.38